sensor_id;sensor_type;location;lat;lon;timestamp;P1;durP1;ratioP1;P2;durP2;ratioP2
69917;SDS011;57203;42.672;23.334;2023-04-03T00:00:00;3.3;;;1.7;;
69917;SDS011;57203;42.672;23.334;2023-04-03T00:01:00;2.7;;;2.2;;
69917;SDS011;57203;42.672;23.334;2023-04-03T00:02:00;4.1;;;1.7;;
69917;SDS011;57203;42.672;23.334;2023-04-03T00:03:00;3.4;;;2.2;;
69917;SDS011;57203;42.672;23.334;2023-04-03T00:04:00;3.4;;;1.8;;
69917;SDS011;57203;42.672;23.334;2023-04-03T00:05:00;3.4;;;2.0;;
69917;SDS011;57203;42.672;23.334;2023-04-03T00:06:01;2.9;;;1.7;;
69917;SDS011;57203;42.672;23.334;2023-04-03T00:07:01;2.9;;;1.8;;
69917;SDS011;57203;42.672;23.334;2023-04-03T00:08:01;3.6;;;1.7;;
69917;SDS011;57203;42.672;23.334;2023-04-03T00:09:01;2.7;;;1.6;;
69917;SDS011;57203;42.672;23.334;2023-04-03T00:11:02;2.1;;;1.9;;
69917;SDS011;57203;42.672;23.334;2023-04-03T00:12:02;2.9;;;1.7;;
69917;SDS011;57203;42.672;23.334;2023-04-03T00:13:02;2.4;;;1.9;;
69917;SDS011;57203;42.672;23.334;2023-04-03T00:14:02;3.0;;;1.7;;
69917;SDS011;57203;42.672;23.334;2023-04-03T00:15:02;2.8;;;2.2;;
69917;SDS011;57203;42.672;23.334;2023-04-03T00:16:02;3.5;;;4.5;;
69917;SDS011;57203;42.672;23.334;2023-04-03T00:17:02;3.1;;;2.0;;
69917;SDS011;57203;42.672;23.334;2023-04-03T00:18:03;5.2;;;2.5;;
69917;SDS011;57203;42.672;23.334;2023-04-03T00:19:03;5.2;;;2.7;;
69917;SDS011;57203;42.672;23.334;2023-04-03T00:20:03;3.8;;;3.0;;
69917;SDS011;57203;42.672;23.334;2023-04-03T00:21:04;5.3;;;3.3;;
69917;SDS011;57203;42.672;23.334;2023-04-03T00:22:03;5.3;;;3.0;;
69917;SDS011;57203;42.672;23.334;2023-04-03T00:23:03;7.2;;;2.6;;
69917;SDS011;57203;42.672;23.334;2023-04-03T00:24:04;4.8;;;2.9;;
69917;SDS011;57203;42.672;23.334;2023-04-03T00:25:04;3.5;;;3.6;;
69917;SDS011;57203;42.672;23.334;2023-04-03T00:26:04;6.7;;;3.4;;
69917;SDS011;57203;42.672;23.334;2023-04-03T00:27:04;4.8;;;3.7;;
69917;SDS011;57203;42.672;23.334;2023-04-03T00:28:04;7.3;;;3.9;;
69917;SDS011;57203;42.672;23.334;2023-04-03T00:29:05;6.3;;;3.3;;
69917;SDS011;57203;42.672;23.334;2023-04-03T00:30:06;5.1;;;3.7;;
69917;SDS011;57203;42.672;23.334;2023-04-03T00:31:05;6.0;;;3.4;;
69917;SDS011;57203;42.672;23.334;2023-04-03T00:32:05;5.6;;;3.0;;
69917;SDS011;57203;42.672;23.334;2023-04-03T00:33:05;4.5;;;2.8;;
69917;SDS011;57203;42.672;23.334;2023-04-03T00:34:05;3.8;;;2.9;;
69917;SDS011;57203;42.672;23.334;2023-04-03T00:35:06;4.6;;;2.5;;
69917;SDS011;57203;42.672;23.334;2023-04-03T00:36:06;3.9;;;3.4;;
69917;SDS011;57203;42.672;23.334;2023-04-03T00:37:06;6.0;;;3.0;;
69917;SDS011;57203;42.672;23.334;2023-04-03T00:38:06;3.8;;;2.9;;
69917;SDS011;57203;42.672;23.334;2023-04-03T00:39:06;5.0;;;2.4;;
69917;SDS011;57203;42.672;23.334;2023-04-03T00:40:07;3.9;;;2.7;;
69917;SDS011;57203;42.672;23.334;2023-04-03T00:41:07;4.7;;;3.0;;
69917;SDS011;57203;42.672;23.334;2023-04-03T00:42:07;5.5;;;2.6;;
69917;SDS011;57203;42.672;23.334;2023-04-03T00:43:10;5.5;;;3.0;;
69917;SDS011;57203;42.672;23.334;2023-04-03T00:47:08;6.1;;;3.3;;
69917;SDS011;57203;42.672;23.334;2023-04-03T00:48:09;5.9;;;3.0;;
69917;SDS011;57203;42.672;23.334;2023-04-03T00:50:08;4.7;;;3.2;;
69917;SDS011;57203;42.672;23.334;2023-04-03T00:52:10;5.0;;;3.5;;
69917;SDS011;57203;42.672;23.334;2023-04-03T00:53:11;5.7;;;2.9;;
69917;SDS011;57203;42.672;23.334;2023-04-03T00:54:09;4.0;;;3.0;;
69917;SDS011;57203;42.672;23.334;2023-04-03T00:55:09;5.3;;;3.6;;
69917;SDS011;57203;42.672;23.334;2023-04-03T00:56:10;6.4;;;3.9;;
69917;SDS011;57203;42.672;23.334;2023-04-03T00:57:09;6.4;;;3.6;;
69917;SDS011;57203;42.672;23.334;2023-04-03T00:58:09;5.3;;;3.2;;
69917;SDS011;57203;42.672;23.334;2023-04-03T00:59:11;4.3;;;3.3;;
69917;SDS011;57203;42.672;23.334;2023-04-03T01:01:11;6.8;;;2.9;;
69917;SDS011;57203;42.672;23.334;2023-04-03T01:02:10;4.4;;;3.2;;
69917;SDS011;57203;42.672;23.334;2023-04-03T01:03:10;4.4;;;3.3;;
69917;SDS011;57203;42.672;23.334;2023-04-03T01:06:11;4.4;;;3.2;;
69917;SDS011;57203;42.672;23.334;2023-04-03T01:07:12;4.4;;;3.1;;
69917;SDS011;57203;42.672;23.334;2023-04-03T01:08:11;5.5;;;3.5;;
69917;SDS011;57203;42.672;23.334;2023-04-03T01:09:11;5.9;;;3.8;;
69917;SDS011;57203;42.672;23.334;2023-04-03T01:10:12;7.2;;;3.4;;
69917;SDS011;57203;42.672;23.334;2023-04-03T01:11:12;5.9;;;3.7;;
69917;SDS011;57203;42.672;23.334;2023-04-03T01:12:12;5.2;;;3.9;;
69917;SDS011;57203;42.672;23.334;2023-04-03T01:13:21;5.2;;;3.5;;
69917;SDS011;57203;42.672;23.334;2023-04-03T01:14:12;4.2;;;3.9;;
69917;SDS011;57203;42.672;23.334;2023-04-03T01:15:14;5.3;;;4.6;;
69917;SDS011;57203;42.672;23.334;2023-04-03T01:16:12;8.1;;;3.5;;
69917;SDS011;57203;42.672;23.334;2023-04-03T01:18:13;7.0;;;4.0;;
69917;SDS011;57203;42.672;23.334;2023-04-03T01:19:14;6.7;;;5.1;;
69917;SDS011;57203;42.672;23.334;2023-04-03T01:20:20;7.7;;;4.4;;
69917;SDS011;57203;42.672;23.334;2023-04-03T01:21:20;6.9;;;4.2;;
69917;SDS011;57203;42.672;23.334;2023-04-03T01:22:15;5.4;;;4.1;;
69917;SDS011;57203;42.672;23.334;2023-04-03T01:23:19;6.0;;;4.5;;
69917;SDS011;57203;42.672;23.334;2023-04-03T01:24:18;6.0;;;5.3;;
69917;SDS011;57203;42.672;23.334;2023-04-03T01:25:14;7.5;;;4.0;;
69917;SDS011;57203;42.672;23.334;2023-04-03T01:26:14;6.3;;;3.9;;
69917;SDS011;57203;42.672;23.334;2023-04-03T01:27:14;6.3;;;4.0;;
69917;SDS011;57203;42.672;23.334;2023-04-03T01:28:15;6.8;;;3.0;;
69917;SDS011;57203;42.672;23.334;2023-04-03T01:29:15;4.6;;;3.4;;
69917;SDS011;57203;42.672;23.334;2023-04-03T01:30:17;4.9;;;3.0;;
69917;SDS011;57203;42.672;23.334;2023-04-03T01:31:18;5.3;;;2.8;;
69917;SDS011;57203;42.672;23.334;2023-04-03T01:32:15;3.3;;;3.0;;
69917;SDS011;57203;42.672;23.334;2023-04-03T01:34:16;4.2;;;2.9;;
69917;SDS011;57203;42.672;23.334;2023-04-03T01:35:16;4.7;;;2.7;;
69917;SDS011;57203;42.672;23.334;2023-04-03T01:36:17;3.9;;;2.6;;
69917;SDS011;57203;42.672;23.334;2023-04-03T01:38:16;3.5;;;2.5;;
69917;SDS011;57203;42.672;23.334;2023-04-03T01:39:16;3.6;;;3.0;;
69917;SDS011;57203;42.672;23.334;2023-04-03T01:40:17;4.6;;;2.2;;
69917;SDS011;57203;42.672;23.334;2023-04-03T01:41:17;3.1;;;2.6;;
69917;SDS011;57203;42.672;23.334;2023-04-03T01:42:17;3.8;;;2.4;;
69917;SDS011;57203;42.672;23.334;2023-04-03T01:44:17;4.8;;;2.5;;
69917;SDS011;57203;42.672;23.334;2023-04-03T01:45:17;3.4;;;2.4;;
69917;SDS011;57203;42.672;23.334;2023-04-03T01:47:18;3.2;;;2.6;;
69917;SDS011;57203;42.672;23.334;2023-04-03T01:48:18;3.8;;;2.5;;
69917;SDS011;57203;42.672;23.334;2023-04-03T01:49:18;4.1;;;2.0;;
69917;SDS011;57203;42.672;23.334;2023-04-03T01:50:18;3.7;;;2.4;;
69917;SDS011;57203;42.672;23.334;2023-04-03T01:51:18;2.4;;;2.1;;
69917;SDS011;57203;42.672;23.334;2023-04-03T01:52:18;4.1;;;2.5;;
69917;SDS011;57203;42.672;23.334;2023-04-03T01:53:19;4.1;;;2.4;;
69917;SDS011;57203;42.672;23.334;2023-04-03T01:54:19;4.1;;;2.6;;
69917;SDS011;57203;42.672;23.334;2023-04-03T01:55:19;3.7;;;2.1;;
69917;SDS011;57203;42.672;23.334;2023-04-03T01:56:19;2.9;;;2.8;;
69917;SDS011;57203;42.672;23.334;2023-04-03T01:57:19;3.6;;;2.3;;
69917;SDS011;57203;42.672;23.334;2023-04-03T01:58:19;3.4;;;2.1;;
69917;SDS011;57203;42.672;23.334;2023-04-03T01:59:20;2.5;;;2.6;;
69917;SDS011;57203;42.672;23.334;2023-04-03T02:00:20;3.3;;;2.2;;
69917;SDS011;57203;42.672;23.334;2023-04-03T02:02:20;3.5;;;1.9;;
69917;SDS011;57203;42.672;23.334;2023-04-03T02:03:20;3.5;;;2.1;;
69917;SDS011;57203;42.672;23.334;2023-04-03T02:04:21;3.8;;;2.3;;
69917;SDS011;57203;42.672;23.334;2023-04-03T02:05:21;4.2;;;1.8;;
69917;SDS011;57203;42.672;23.334;2023-04-03T02:06:21;4.2;;;2.3;;
69917;SDS011;57203;42.672;23.334;2023-04-03T02:08:21;3.0;;;2.8;;
69917;SDS011;57203;42.672;23.334;2023-04-03T02:09:23;4.1;;;2.5;;
69917;SDS011;57203;42.672;23.334;2023-04-03T02:10:21;3.3;;;2.7;;
69917;SDS011;57203;42.672;23.334;2023-04-03T02:11:22;5.7;;;2.8;;
69917;SDS011;57203;42.672;23.334;2023-04-03T02:12:22;5.7;;;2.6;;
69917;SDS011;57203;42.672;23.334;2023-04-03T02:13:22;3.7;;;2.9;;
69917;SDS011;57203;42.672;23.334;2023-04-03T02:14:22;4.3;;;2.7;;
69917;SDS011;57203;42.672;23.334;2023-04-03T02:15:22;4.3;;;2.9;;
69917;SDS011;57203;42.672;23.334;2023-04-03T02:17:23;4.1;;;2.8;;
69917;SDS011;57203;42.672;23.334;2023-04-03T02:18:23;4.3;;;3.3;;
69917;SDS011;57203;42.672;23.334;2023-04-03T02:19:23;4.3;;;3.4;;
69917;SDS011;57203;42.672;23.334;2023-04-03T02:20:23;5.5;;;3.2;;
69917;SDS011;57203;42.672;23.334;2023-04-03T02:21:23;5.5;;;3.1;;
69917;SDS011;57203;42.672;23.334;2023-04-03T02:22:23;5.1;;;2.9;;
69917;SDS011;57203;42.672;23.334;2023-04-03T02:23:24;3.8;;;3.5;;
69917;SDS011;57203;42.672;23.334;2023-04-03T02:24:24;5.3;;;3.4;;
69917;SDS011;57203;42.672;23.334;2023-04-03T02:25:24;5.7;;;3.3;;
69917;SDS011;57203;42.672;23.334;2023-04-03T02:26:24;5.0;;;3.7;;
69917;SDS011;57203;42.672;23.334;2023-04-03T02:28:24;4.9;;;4.4;;
69917;SDS011;57203;42.672;23.334;2023-04-03T02:29:25;6.9;;;3.5;;
69917;SDS011;57203;42.672;23.334;2023-04-03T02:30:25;4.4;;;4.3;;
69917;SDS011;57203;42.672;23.334;2023-04-03T02:31:25;7.5;;;4.0;;
69917;SDS011;57203;42.672;23.334;2023-04-03T02:32:25;6.1;;;3.9;;
69917;SDS011;57203;42.672;23.334;2023-04-03T02:33:25;5.7;;;3.7;;
69917;SDS011;57203;42.672;23.334;2023-04-03T02:34:25;4.7;;;3.6;;
69917;SDS011;57203;42.672;23.334;2023-04-03T02:35:26;5.3;;;3.2;;
69917;SDS011;57203;42.672;23.334;2023-04-03T02:36:26;4.5;;;3.0;;
69917;SDS011;57203;42.672;23.334;2023-04-03T02:37:26;4.4;;;3.1;;
69917;SDS011;57203;42.672;23.334;2023-04-03T02:39:26;4.2;;;2.9;;
69917;SDS011;57203;42.672;23.334;2023-04-03T02:40:26;4.3;;;2.8;;
69917;SDS011;57203;42.672;23.334;2023-04-03T02:41:26;3.4;;;3.1;;
69917;SDS011;57203;42.672;23.334;2023-04-03T02:42:27;5.1;;;3.3;;
69917;SDS011;57203;42.672;23.334;2023-04-03T02:43:27;5.1;;;3.6;;
69917;SDS011;57203;42.672;23.334;2023-04-03T02:44:27;4.8;;;3.9;;
69917;SDS011;57203;42.672;23.334;2023-04-03T02:45:27;6.1;;;3.7;;
69917;SDS011;57203;42.672;23.334;2023-04-03T02:46:27;6.8;;;3.3;;
69917;SDS011;57203;42.672;23.334;2023-04-03T02:47:27;4.8;;;3.7;;
69917;SDS011;57203;42.672;23.334;2023-04-03T02:50:28;5.9;;;3.6;;
69917;SDS011;57203;42.672;23.334;2023-04-03T02:51:28;6.1;;;3.1;;
69917;SDS011;57203;42.672;23.334;2023-04-03T02:52:28;5.5;;;3.8;;
69917;SDS011;57203;42.672;23.334;2023-04-03T02:53:28;5.4;;;3.7;;
69917;SDS011;57203;42.672;23.334;2023-04-03T02:54:29;5.7;;;3.6;;
69917;SDS011;57203;42.672;23.334;2023-04-03T02:55:29;5.7;;;4.2;;
69917;SDS011;57203;42.672;23.334;2023-04-03T02:56:29;5.9;;;4.3;;
69917;SDS011;57203;42.672;23.334;2023-04-03T02:57:29;5.4;;;4.6;;
69917;SDS011;57203;42.672;23.334;2023-04-03T02:58:29;5.4;;;4.0;;
69917;SDS011;57203;42.672;23.334;2023-04-03T02:59:29;6.2;;;4.5;;
69917;SDS011;57203;42.672;23.334;2023-04-03T03:00:30;8.1;;;5.1;;
69917;SDS011;57203;42.672;23.334;2023-04-03T03:01:30;8.1;;;4.6;;
69917;SDS011;57203;42.672;23.334;2023-04-03T03:02:30;6.3;;;5.0;;
69917;SDS011;57203;42.672;23.334;2023-04-03T03:04:30;8.0;;;4.9;;
69917;SDS011;57203;42.672;23.334;2023-04-03T03:05:30;6.6;;;5.4;;
69917;SDS011;57203;42.672;23.334;2023-04-03T03:06:30;12.9;;;5.1;;
69917;SDS011;57203;42.672;23.334;2023-04-03T03:07:31;8.2;;;5.3;;
69917;SDS011;57203;42.672;23.334;2023-04-03T03:08:31;8.4;;;5.7;;
69917;SDS011;57203;42.672;23.334;2023-04-03T03:09:31;8.7;;;5.5;;
69917;SDS011;57203;42.672;23.334;2023-04-03T03:10:31;7.6;;;6.1;;
69917;SDS011;57203;42.672;23.334;2023-04-03T03:11:31;8.9;;;4.8;;
69917;SDS011;57203;42.672;23.334;2023-04-03T03:12:31;9.6;;;5.3;;
69917;SDS011;57203;42.672;23.334;2023-04-03T03:13:32;9.6;;;5.5;;
69917;SDS011;57203;42.672;23.334;2023-04-03T03:14:32;7.8;;;5.6;;
69917;SDS011;57203;42.672;23.334;2023-04-03T03:15:32;8.9;;;5.5;;
69917;SDS011;57203;42.672;23.334;2023-04-03T03:16:32;8.4;;;5.6;;
69917;SDS011;57203;42.672;23.334;2023-04-03T03:17:32;8.6;;;5.7;;
69917;SDS011;57203;42.672;23.334;2023-04-03T03:18:33;8.2;;;5.4;;
69917;SDS011;57203;42.672;23.334;2023-04-03T03:19:33;8.2;;;5.9;;
69917;SDS011;57203;42.672;23.334;2023-04-03T03:20:33;7.9;;;5.8;;
69917;SDS011;57203;42.672;23.334;2023-04-03T03:21:33;7.2;;;5.0;;
69917;SDS011;57203;42.672;23.334;2023-04-03T03:22:34;7.2;;;5.5;;
69917;SDS011;57203;42.672;23.334;2023-04-03T03:23:33;9.7;;;4.5;;
69917;SDS011;57203;42.672;23.334;2023-04-03T03:24:33;6.0;;;4.8;;
69917;SDS011;57203;42.672;23.334;2023-04-03T03:25:37;8.5;;;5.2;;
69917;SDS011;57203;42.672;23.334;2023-04-03T03:26:34;8.5;;;5.6;;
69917;SDS011;57203;42.672;23.334;2023-04-03T03:27:34;7.8;;;5.5;;
69917;SDS011;57203;42.672;23.334;2023-04-03T03:28:34;8.4;;;4.9;;
69917;SDS011;57203;42.672;23.334;2023-04-03T03:29:34;7.8;;;5.2;;
69917;SDS011;57203;42.672;23.334;2023-04-03T03:30:34;9.1;;;5.5;;
69917;SDS011;57203;42.672;23.334;2023-04-03T03:32:35;7.4;;;5.2;;
69917;SDS011;57203;42.672;23.334;2023-04-03T03:33:35;8.2;;;5.0;;
69917;SDS011;57203;42.672;23.334;2023-04-03T03:34:35;8.1;;;5.5;;
69917;SDS011;57203;42.672;23.334;2023-04-03T03:35:35;8.1;;;5.9;;
69917;SDS011;57203;42.672;23.334;2023-04-03T03:36:35;10.9;;;5.6;;
69917;SDS011;57203;42.672;23.334;2023-04-03T03:37:35;8.6;;;4.8;;
69917;SDS011;57203;42.672;23.334;2023-04-03T03:38:36;7.6;;;4.7;;
69917;SDS011;57203;42.672;23.334;2023-04-03T03:39:36;7.6;;;5.3;;
69917;SDS011;57203;42.672;23.334;2023-04-03T03:40:36;7.5;;;5.5;;
69917;SDS011;57203;42.672;23.334;2023-04-03T03:41:36;8.7;;;4.8;;
69917;SDS011;57203;42.672;23.334;2023-04-03T03:42:36;9.6;;;4.2;;
69917;SDS011;57203;42.672;23.334;2023-04-03T03:43:36;6.2;;;5.2;;
69917;SDS011;57203;42.672;23.334;2023-04-03T03:45:37;10.0;;;5.0;;
69917;SDS011;57203;42.672;23.334;2023-04-03T03:46:37;6.9;;;5.3;;
69917;SDS011;57203;42.672;23.334;2023-04-03T03:47:37;7.9;;;5.4;;
69917;SDS011;57203;42.672;23.334;2023-04-03T03:48:37;7.9;;;5.7;;
69917;SDS011;57203;42.672;23.334;2023-04-03T03:50:38;7.3;;;5.2;;
69917;SDS011;57203;42.672;23.334;2023-04-03T03:51:38;9.1;;;5.7;;
69917;SDS011;57203;42.672;23.334;2023-04-03T03:52:38;10.4;;;4.9;;
69917;SDS011;57203;42.672;23.334;2023-04-03T03:53:38;8.1;;;4.8;;
69917;SDS011;57203;42.672;23.334;2023-04-03T03:54:38;8.1;;;5.0;;
69917;SDS011;57203;42.672;23.334;2023-04-03T03:55:38;8.8;;;5.3;;
69917;SDS011;57203;42.672;23.334;2023-04-03T03:56:39;6.7;;;6.0;;
69917;SDS011;57203;42.672;23.334;2023-04-03T03:57:39;8.8;;;5.8;;
69917;SDS011;57203;42.672;23.334;2023-04-03T03:58:39;8.9;;;5.0;;
69917;SDS011;57203;42.672;23.334;2023-04-03T03:59:39;8.0;;;5.8;;
69917;SDS011;57203;42.672;23.334;2023-04-03T04:00:39;6.8;;;5.2;;
69917;SDS011;57203;42.672;23.334;2023-04-03T04:01:39;9.5;;;5.6;;
69917;SDS011;57203;42.672;23.334;2023-04-03T04:02:40;9.5;;;6.1;;
69917;SDS011;57203;42.672;23.334;2023-04-03T04:03:40;9.3;;;5.3;;
69917;SDS011;57203;42.672;23.334;2023-04-03T04:04:40;9.4;;;5.6;;
69917;SDS011;57203;42.672;23.334;2023-04-03T04:05:40;9.3;;;5.3;;
69917;SDS011;57203;42.672;23.334;2023-04-03T04:06:40;9.0;;;5.1;;
69917;SDS011;57203;42.672;23.334;2023-04-03T04:07:40;9.0;;;5.8;;
69917;SDS011;57203;42.672;23.334;2023-04-03T04:08:40;8.1;;;5.3;;
69917;SDS011;57203;42.672;23.334;2023-04-03T04:09:41;7.8;;;5.9;;
69917;SDS011;57203;42.672;23.334;2023-04-03T04:10:41;9.3;;;5.4;;
69917;SDS011;57203;42.672;23.334;2023-04-03T04:11:41;8.4;;;5.6;;
69917;SDS011;57203;42.672;23.334;2023-04-03T04:12:41;8.3;;;5.9;;
69917;SDS011;57203;42.672;23.334;2023-04-03T04:13:41;9.2;;;6.3;;
69917;SDS011;57203;42.672;23.334;2023-04-03T04:14:41;11.3;;;6.2;;
69917;SDS011;57203;42.672;23.334;2023-04-03T04:15:42;11.2;;;5.6;;
69917;SDS011;57203;42.672;23.334;2023-04-03T04:16:42;9.1;;;6.1;;
69917;SDS011;57203;42.672;23.334;2023-04-03T04:17:42;9.6;;;6.5;;
69917;SDS011;57203;42.672;23.334;2023-04-03T04:18:42;10.3;;;6.2;;
69917;SDS011;57203;42.672;23.334;2023-04-03T04:19:42;10.8;;;5.9;;
69917;SDS011;57203;42.672;23.334;2023-04-03T04:20:44;8.3;;;5.6;;
69917;SDS011;57203;42.672;23.334;2023-04-03T04:21:43;8.7;;;5.8;;
69917;SDS011;57203;42.672;23.334;2023-04-03T04:22:43;8.8;;;5.7;;
69917;SDS011;57203;42.672;23.334;2023-04-03T04:23:43;11.1;;;6.0;;
69917;SDS011;57203;42.672;23.334;2023-04-03T04:25:44;10.2;;;5.6;;
69917;SDS011;57203;42.672;23.334;2023-04-03T04:26:44;10.2;;;6.3;;
69917;SDS011;57203;42.672;23.334;2023-04-03T04:27:44;11.5;;;6.5;;
69917;SDS011;57203;42.672;23.334;2023-04-03T04:28:44;11.5;;;6.0;;
69917;SDS011;57203;42.672;23.334;2023-04-03T04:29:44;11.5;;;6.2;;
69917;SDS011;57203;42.672;23.334;2023-04-03T04:30:44;8.9;;;6.7;;
69917;SDS011;57203;42.672;23.334;2023-04-03T04:31:44;10.7;;;5.8;;
69917;SDS011;57203;42.672;23.334;2023-04-03T04:32:44;11.7;;;6.2;;
69917;SDS011;57203;42.672;23.334;2023-04-03T04:33:44;11.7;;;5.8;;
69917;SDS011;57203;42.672;23.334;2023-04-03T04:34:45;11.4;;;6.2;;
69917;SDS011;57203;42.672;23.334;2023-04-03T04:35:46;13.0;;;6.9;;
69917;SDS011;57203;42.672;23.334;2023-04-03T04:36:45;14.5;;;7.2;;
69917;SDS011;57203;42.672;23.334;2023-04-03T04:37:45;14.5;;;6.9;;
69917;SDS011;57203;42.672;23.334;2023-04-03T04:38:45;12.9;;;7.2;;
69917;SDS011;57203;42.672;23.334;2023-04-03T04:39:46;13.2;;;6.6;;
69917;SDS011;57203;42.672;23.334;2023-04-03T04:40:46;9.3;;;6.5;;
69917;SDS011;57203;42.672;23.334;2023-04-03T04:41:46;12.2;;;7.7;;
69917;SDS011;57203;42.672;23.334;2023-04-03T04:42:46;12.3;;;7.3;;
69917;SDS011;57203;42.672;23.334;2023-04-03T04:43:46;11.4;;;7.1;;
69917;SDS011;57203;42.672;23.334;2023-04-03T04:44:46;13.7;;;7.3;;
69917;SDS011;57203;42.672;23.334;2023-04-03T04:45:46;12.8;;;7.1;;
69917;SDS011;57203;42.672;23.334;2023-04-03T04:46:47;14.3;;;7.5;;
69917;SDS011;57203;42.672;23.334;2023-04-03T04:47:47;13.4;;;6.5;;
69917;SDS011;57203;42.672;23.334;2023-04-03T04:48:47;11.6;;;7.0;;
69917;SDS011;57203;42.672;23.334;2023-04-03T04:49:47;10.7;;;7.2;;
69917;SDS011;57203;42.672;23.334;2023-04-03T04:50:47;11.8;;;7.3;;
69917;SDS011;57203;42.672;23.334;2023-04-03T04:51:47;14.3;;;7.0;;
69917;SDS011;57203;42.672;23.334;2023-04-03T04:52:47;11.8;;;6.9;;
69917;SDS011;57203;42.672;23.334;2023-04-03T04:53:48;11.0;;;7.6;;
69917;SDS011;57203;42.672;23.334;2023-04-03T04:54:48;16.6;;;6.9;;
69917;SDS011;57203;42.672;23.334;2023-04-03T04:55:48;11.1;;;7.5;;
69917;SDS011;57203;42.672;23.334;2023-04-03T04:56:48;10.7;;;7.4;;
69917;SDS011;57203;42.672;23.334;2023-04-03T04:57:48;10.7;;;6.7;;
69917;SDS011;57203;42.672;23.334;2023-04-03T04:58:48;13.6;;;6.8;;
69917;SDS011;57203;42.672;23.334;2023-04-03T04:59:49;10.6;;;7.3;;
69917;SDS011;57203;42.672;23.334;2023-04-03T05:00:49;12.6;;;7.1;;
69917;SDS011;57203;42.672;23.334;2023-04-03T05:01:49;13.0;;;7.2;;
69917;SDS011;57203;42.672;23.334;2023-04-03T05:02:49;13.0;;;7.6;;
69917;SDS011;57203;42.672;23.334;2023-04-03T05:03:49;13.0;;;7.5;;
69917;SDS011;57203;42.672;23.334;2023-04-03T05:04:49;12.7;;;6.4;;
69917;SDS011;57203;42.672;23.334;2023-04-03T05:05:50;11.0;;;7.0;;
69917;SDS011;57203;42.672;23.334;2023-04-03T05:06:50;10.2;;;6.2;;
69917;SDS011;57203;42.672;23.334;2023-04-03T05:07:50;10.6;;;6.7;;
69917;SDS011;57203;42.672;23.334;2023-04-03T05:08:50;12.3;;;7.2;;
69917;SDS011;57203;42.672;23.334;2023-04-03T05:09:50;10.7;;;6.6;;
69917;SDS011;57203;42.672;23.334;2023-04-03T05:10:51;10.4;;;6.4;;
69917;SDS011;57203;42.672;23.334;2023-04-03T05:11:51;9.5;;;6.6;;
69917;SDS011;57203;42.672;23.334;2023-04-03T05:12:51;9.5;;;6.4;;
69917;SDS011;57203;42.672;23.334;2023-04-03T05:13:51;11.2;;;7.8;;
69917;SDS011;57203;42.672;23.334;2023-04-03T05:14:51;12.0;;;7.0;;
69917;SDS011;57203;42.672;23.334;2023-04-03T05:16:51;10.7;;;6.9;;
69917;SDS011;57203;42.672;23.334;2023-04-03T05:17:52;11.6;;;7.8;;
69917;SDS011;57203;42.672;23.334;2023-04-03T05:18:52;14.2;;;7.0;;
69917;SDS011;57203;42.672;23.334;2023-04-03T05:19:52;10.0;;;8.3;;
69917;SDS011;57203;42.672;23.334;2023-04-03T05:20:52;16.8;;;7.6;;
69917;SDS011;57203;42.672;23.334;2023-04-03T05:21:52;12.3;;;7.1;;
69917;SDS011;57203;42.672;23.334;2023-04-03T05:22:52;13.2;;;7.7;;
69917;SDS011;57203;42.672;23.334;2023-04-03T05:23:53;12.8;;;7.8;;
69917;SDS011;57203;42.672;23.334;2023-04-03T05:24:53;12.9;;;7.7;;
69917;SDS011;57203;42.672;23.334;2023-04-03T05:25:53;21.4;;;7.0;;
69917;SDS011;57203;42.672;23.334;2023-04-03T05:26:53;13.5;;;7.5;;
69917;SDS011;57203;42.672;23.334;2023-04-03T05:27:53;15.4;;;7.9;;
69917;SDS011;57203;42.672;23.334;2023-04-03T05:28:53;20.9;;;7.4;;
69917;SDS011;57203;42.672;23.334;2023-04-03T05:29:54;16.4;;;7.3;;
69917;SDS011;57203;42.672;23.334;2023-04-03T05:30:54;12.0;;;7.7;;
69917;SDS011;57203;42.672;23.334;2023-04-03T05:31:54;16.4;;;7.5;;
69917;SDS011;57203;42.672;23.334;2023-04-03T05:32:54;12.8;;;8.1;;
69917;SDS011;57203;42.672;23.334;2023-04-03T05:33:54;12.8;;;7.0;;
69917;SDS011;57203;42.672;23.334;2023-04-03T05:34:54;12.7;;;7.1;;
69917;SDS011;57203;42.672;23.334;2023-04-03T05:36:55;10.5;;;6.8;;
69917;SDS011;57203;42.672;23.334;2023-04-03T05:37:55;12.9;;;6.6;;
69917;SDS011;57203;42.672;23.334;2023-04-03T05:38:56;14.3;;;6.8;;
69917;SDS011;57203;42.672;23.334;2023-04-03T05:39:55;12.9;;;6.5;;
69917;SDS011;57203;42.672;23.334;2023-04-03T05:40:55;12.5;;;6.7;;
69917;SDS011;57203;42.672;23.334;2023-04-03T05:41:56;12.5;;;6.4;;
69917;SDS011;57203;42.672;23.334;2023-04-03T05:42:56;9.4;;;6.3;;
69917;SDS011;57203;42.672;23.334;2023-04-03T05:43:56;10.3;;;6.9;;
69917;SDS011;57203;42.672;23.334;2023-04-03T05:44:56;11.5;;;6.7;;
69917;SDS011;57203;42.672;23.334;2023-04-03T05:45:56;10.4;;;7.3;;
69917;SDS011;57203;42.672;23.334;2023-04-03T05:46:57;10.8;;;6.5;;
69917;SDS011;57203;42.672;23.334;2023-04-03T05:47:57;9.4;;;7.0;;
69917;SDS011;57203;42.672;23.334;2023-04-03T05:48:57;11.1;;;7.1;;
69917;SDS011;57203;42.672;23.334;2023-04-03T05:49:57;10.4;;;6.4;;
69917;SDS011;57203;42.672;23.334;2023-04-03T05:50:57;9.6;;;7.0;;
69917;SDS011;57203;42.672;23.334;2023-04-03T05:51:57;11.8;;;6.5;;
69917;SDS011;57203;42.672;23.334;2023-04-03T05:52:58;10.8;;;6.1;;
69917;SDS011;57203;42.672;23.334;2023-04-03T05:53:59;10.8;;;6.7;;
69917;SDS011;57203;42.672;23.334;2023-04-03T05:54:58;11.4;;;7.1;;
69917;SDS011;57203;42.672;23.334;2023-04-03T05:55:58;12.0;;;6.8;;
69917;SDS011;57203;42.672;23.334;2023-04-03T05:56:58;13.0;;;7.2;;
69917;SDS011;57203;42.672;23.334;2023-04-03T05:57:58;12.4;;;7.1;;
69917;SDS011;57203;42.672;23.334;2023-04-03T05:58:59;10.8;;;6.9;;
69917;SDS011;57203;42.672;23.334;2023-04-03T05:59:59;14.0;;;7.1;;
69917;SDS011;57203;42.672;23.334;2023-04-03T06:00:59;14.0;;;7.4;;
69917;SDS011;57203;42.672;23.334;2023-04-03T06:01:59;10.5;;;7.7;;
69917;SDS011;57203;42.672;23.334;2023-04-03T06:02:59;12.6;;;7.8;;
69917;SDS011;57203;42.672;23.334;2023-04-03T06:03:59;12.6;;;8.1;;
69917;SDS011;57203;42.672;23.334;2023-04-03T06:05:00;13.8;;;8.3;;
69917;SDS011;57203;42.672;23.334;2023-04-03T06:06:01;12.5;;;8.2;;
69917;SDS011;57203;42.672;23.334;2023-04-03T06:07:00;14.9;;;8.8;;
69917;SDS011;57203;42.672;23.334;2023-04-03T06:08:00;16.4;;;8.7;;
69917;SDS011;57203;42.672;23.334;2023-04-03T06:09:00;16.4;;;9.0;;
69917;SDS011;57203;42.672;23.334;2023-04-03T06:12:01;16.2;;;8.8;;
69917;SDS011;57203;42.672;23.334;2023-04-03T06:13:01;14.5;;;9.1;;
69917;SDS011;57203;42.672;23.334;2023-04-03T06:14:01;14.5;;;8.8;;
69917;SDS011;57203;42.672;23.334;2023-04-03T06:15:02;16.0;;;9.6;;
69917;SDS011;57203;42.672;23.334;2023-04-03T06:16:02;12.7;;;9.4;;
69917;SDS011;57203;42.672;23.334;2023-04-03T06:17:02;13.2;;;9.8;;
69917;SDS011;57203;42.672;23.334;2023-04-03T06:18:02;13.3;;;8.7;;
69917;SDS011;57203;42.672;23.334;2023-04-03T06:19:02;13.3;;;8.4;;
69917;SDS011;57203;42.672;23.334;2023-04-03T06:20:02;13.8;;;8.2;;
69917;SDS011;57203;42.672;23.334;2023-04-03T06:21:03;13.3;;;9.1;;
69917;SDS011;57203;42.672;23.334;2023-04-03T06:22:03;16.0;;;9.0;;
69917;SDS011;57203;42.672;23.334;2023-04-03T06:23:03;12.9;;;8.8;;
69917;SDS011;57203;42.672;23.334;2023-04-03T06:24:03;12.9;;;8.4;;
69917;SDS011;57203;42.672;23.334;2023-04-03T06:25:04;14.0;;;8.8;;
69917;SDS011;57203;42.672;23.334;2023-04-03T06:26:03;12.7;;;9.1;;
69917;SDS011;57203;42.672;23.334;2023-04-03T06:27:03;12.9;;;8.4;;
69917;SDS011;57203;42.672;23.334;2023-04-03T06:28:04;12.9;;;9.2;;
69917;SDS011;57203;42.672;23.334;2023-04-03T06:29:04;13.1;;;8.3;;
69917;SDS011;57203;42.672;23.334;2023-04-03T06:30:04;13.1;;;9.2;;
69917;SDS011;57203;42.672;23.334;2023-04-03T06:31:04;13.4;;;9.1;;
69917;SDS011;57203;42.672;23.334;2023-04-03T06:32:04;15.3;;;9.0;;
69917;SDS011;57203;42.672;23.334;2023-04-03T06:33:04;13.4;;;9.2;;
69917;SDS011;57203;42.672;23.334;2023-04-03T06:34:05;15.3;;;9.1;;
69917;SDS011;57203;42.672;23.334;2023-04-03T06:35:05;15.5;;;9.3;;